sensor_id;sensor_type;location;lat;lon;timestamp;P1;durP1;ratioP1;P2;durP2;ratioP2
46835;SDS011;32573;51.290;6.926;2023-05-07T00:00:30;2.95;;;1.38;;
46835;SDS011;32573;51.290;6.926;2023-05-07T00:03:00;2.90;;;1.40;;
46835;SDS011;32573;51.290;6.926;2023-05-07T00:05:31;3.08;;;1.48;;
46835;SDS011;32573;51.290;6.926;2023-05-07T00:07:59;3.17;;;1.40;;
46835;SDS011;32573;51.290;6.926;2023-05-07T00:10:27;2.55;;;1.20;;
46835;SDS011;32573;51.290;6.926;2023-05-07T00:12:56;2.72;;;1.38;;
46835;SDS011;32573;51.290;6.926;2023-05-07T00:15:25;2.55;;;1.30;;
46835;SDS011;32573;51.290;6.926;2023-05-07T00:17:53;2.97;;;1.50;;
46835;SDS011;32573;51.290;6.926;2023-05-07T00:20:24;2.67;;;1.20;;
46835;SDS011;32573;51.290;6.926;2023-05-07T00:22:54;2.50;;;1.30;;
46835;SDS011;32573;51.290;6.926;2023-05-07T00:25:23;2.90;;;1.20;;
46835;SDS011;32573;51.290;6.926;2023-05-07T00:27:51;3.25;;;1.48;;
46835;SDS011;32573;51.290;6.926;2023-05-07T00:30:20;2.83;;;1.40;;
46835;SDS011;32573;51.290;6.926;2023-05-07T00:32:49;2.97;;;1.40;;
46835;SDS011;32573;51.290;6.926;2023-05-07T00:35:17;2.70;;;1.40;;
46835;SDS011;32573;51.290;6.926;2023-05-07T00:37:46;3.45;;;1.50;;
46835;SDS011;32573;51.290;6.926;2023-05-07T00:40:16;2.92;;;1.38;;
46835;SDS011;32573;51.290;6.926;2023-05-07T00:42:45;3.15;;;1.33;;
46835;SDS011;32573;51.290;6.926;2023-05-07T00:45:16;2.78;;;1.40;;
46835;SDS011;32573;51.290;6.926;2023-05-07T00:47:44;2.97;;;1.55;;
46835;SDS011;32573;51.290;6.926;2023-05-07T00:50:13;2.72;;;1.42;;
46835;SDS011;32573;51.290;6.926;2023-05-07T00:52:43;3.42;;;1.55;;
46835;SDS011;32573;51.290;6.926;2023-05-07T00:55:11;4.22;;;1.70;;
46835;SDS011;32573;51.290;6.926;2023-05-07T00:57:42;3.20;;;1.50;;
46835;SDS011;32573;51.290;6.926;2023-05-07T01:00:12;2.80;;;1.38;;
46835;SDS011;32573;51.290;6.926;2023-05-07T01:02:42;2.83;;;1.40;;
46835;SDS011;32573;51.290;6.926;2023-05-07T01:05:12;3.78;;;1.45;;
46835;SDS011;32573;51.290;6.926;2023-05-07T01:07:44;2.92;;;1.30;;
46835;SDS011;32573;51.290;6.926;2023-05-07T01:10:13;3.17;;;1.70;;
46835;SDS011;32573;51.290;6.926;2023-05-07T01:12:44;3.00;;;1.30;;
46835;SDS011;32573;51.290;6.926;2023-05-07T01:15:14;2.90;;;1.40;;
46835;SDS011;32573;51.290;6.926;2023-05-07T01:17:43;2.60;;;1.27;;
46835;SDS011;32573;51.290;6.926;2023-05-07T01:20:19;2.97;;;1.48;;
46835;SDS011;32573;51.290;6.926;2023-05-07T01:22:51;2.95;;;1.33;;
46835;SDS011;32573;51.290;6.926;2023-05-07T01:25:21;3.60;;;1.50;;
46835;SDS011;32573;51.290;6.926;2023-05-07T01:27:53;3.97;;;1.70;;
46835;SDS011;32573;51.290;6.926;2023-05-07T01:30:26;3.92;;;1.55;;
46835;SDS011;32573;51.290;6.926;2023-05-07T01:32:57;3.28;;;1.50;;
46835;SDS011;32573;51.290;6.926;2023-05-07T01:35:30;3.13;;;1.60;;
46835;SDS011;32573;51.290;6.926;2023-05-07T01:38:04;2.95;;;1.40;;
46835;SDS011;32573;51.290;6.926;2023-05-07T01:40:33;2.95;;;1.65;;
46835;SDS011;32573;51.290;6.926;2023-05-07T01:43:02;4.15;;;1.50;;
46835;SDS011;32573;51.290;6.926;2023-05-07T01:45:33;3.17;;;1.52;;
46835;SDS011;32573;51.290;6.926;2023-05-07T01:48:03;3.50;;;1.80;;
46835;SDS011;32573;51.290;6.926;2023-05-07T01:50:32;2.60;;;1.30;;
46835;SDS011;32573;51.290;6.926;2023-05-07T01:53:03;2.80;;;1.40;;
46835;SDS011;32573;51.290;6.926;2023-05-07T01:55:32;3.20;;;1.50;;
46835;SDS011;32573;51.290;6.926;2023-05-07T01:58:01;3.42;;;1.50;;
46835;SDS011;32573;51.290;6.926;2023-05-07T02:00:30;3.05;;;1.48;;
46835;SDS011;32573;51.290;6.926;2023-05-07T02:02:59;2.55;;;1.33;;
46835;SDS011;32573;51.290;6.926;2023-05-07T02:05:42;3.10;;;1.70;;
46835;SDS011;32573;51.290;6.926;2023-05-07T02:08:34;4.35;;;1.77;;
46835;SDS011;32573;51.290;6.926;2023-05-07T02:11:02;3.17;;;1.60;;
46835;SDS011;32573;51.290;6.926;2023-05-07T02:13:32;2.83;;;1.50;;
46835;SDS011;32573;51.290;6.926;2023-05-07T02:16:02;2.70;;;1.35;;
46835;SDS011;32573;51.290;6.926;2023-05-07T02:18:30;3.05;;;1.45;;
46835;SDS011;32573;51.290;6.926;2023-05-07T02:21:00;3.50;;;1.58;;
46835;SDS011;32573;51.290;6.926;2023-05-07T02:23:28;3.17;;;1.55;;
46835;SDS011;32573;51.290;6.926;2023-05-07T02:25:58;3.17;;;1.48;;
46835;SDS011;32573;51.290;6.926;2023-05-07T02:28:27;3.00;;;1.33;;
46835;SDS011;32573;51.290;6.926;2023-05-07T02:31:01;2.93;;;1.60;;
46835;SDS011;32573;51.290;6.926;2023-05-07T02:33:31;3.10;;;1.52;;
46835;SDS011;32573;51.290;6.926;2023-05-07T02:36:06;3.20;;;1.50;;
46835;SDS011;32573;51.290;6.926;2023-05-07T02:38:40;3.03;;;1.33;;
46835;SDS011;32573;51.290;6.926;2023-05-07T02:41:10;3.47;;;1.50;;
46835;SDS011;32573;51.290;6.926;2023-05-07T02:43:38;3.08;;;1.60;;
46835;SDS011;32573;51.290;6.926;2023-05-07T02:46:08;3.22;;;1.60;;
46835;SDS011;32573;51.290;6.926;2023-05-07T02:48:40;2.97;;;1.42;;
46835;SDS011;32573;51.290;6.926;2023-05-07T02:51:09;2.80;;;1.40;;
46835;SDS011;32573;51.290;6.926;2023-05-07T02:53:40;3.15;;;1.42;;
46835;SDS011;32573;51.290;6.926;2023-05-07T02:56:10;3.08;;;1.40;;
46835;SDS011;32573;51.290;6.926;2023-05-07T02:58:39;4.00;;;1.40;;
46835;SDS011;32573;51.290;6.926;2023-05-07T03:01:09;3.30;;;1.48;;
46835;SDS011;32573;51.290;6.926;2023-05-07T03:03:45;2.75;;;1.27;;
46835;SDS011;32573;51.290;6.926;2023-05-07T03:06:13;2.80;;;1.33;;
46835;SDS011;32573;51.290;6.926;2023-05-07T03:08:42;2.80;;;1.40;;
46835;SDS011;32573;51.290;6.926;2023-05-07T03:11:12;3.88;;;1.48;;
46835;SDS011;32573;51.290;6.926;2023-05-07T03:13:41;2.60;;;1.27;;
46835;SDS011;32573;51.290;6.926;2023-05-07T03:16:10;3.45;;;1.23;;
46835;SDS011;32573;51.290;6.926;2023-05-07T03:18:39;2.80;;;1.20;;
46835;SDS011;32573;51.290;6.926;2023-05-07T03:21:07;2.97;;;1.30;;
46835;SDS011;32573;51.290;6.926;2023-05-07T03:23:36;2.03;;;1.10;;
46835;SDS011;32573;51.290;6.926;2023-05-07T03:26:04;2.75;;;1.30;;
46835;SDS011;32573;51.290;6.926;2023-05-07T03:28:34;2.83;;;1.20;;
46835;SDS011;32573;51.290;6.926;2023-05-07T03:31:06;3.00;;;1.40;;
46835;SDS011;32573;51.290;6.926;2023-05-07T03:33:35;2.70;;;1.38;;
46835;SDS011;32573;51.290;6.926;2023-05-07T03:36:06;3.35;;;1.40;;
46835;SDS011;32573;51.290;6.926;2023-05-07T03:38:35;2.60;;;1.30;;
46835;SDS011;32573;51.290;6.926;2023-05-07T03:41:05;3.17;;;1.30;;
46835;SDS011;32573;51.290;6.926;2023-05-07T03:43:35;3.05;;;1.38;;
46835;SDS011;32573;51.290;6.926;2023-05-07T03:46:08;2.70;;;1.20;;
46835;SDS011;32573;51.290;6.926;2023-05-07T03:48:37;2.88;;;1.20;;
46835;SDS011;32573;51.290;6.926;2023-05-07T03:51:06;2.90;;;1.23;;
46835;SDS011;32573;51.290;6.926;2023-05-07T03:53:35;2.67;;;1.30;;
46835;SDS011;32573;51.290;6.926;2023-05-07T03:56:04;3.20;;;1.33;;
46835;SDS011;32573;51.290;6.926;2023-05-07T03:58:38;3.22;;;1.33;;
46835;SDS011;32573;51.290;6.926;2023-05-07T04:01:09;2.35;;;1.30;;
46835;SDS011;32573;51.290;6.926;2023-05-07T04:03:38;3.55;;;1.30;;
46835;SDS011;32573;51.290;6.926;2023-05-07T04:06:07;2.50;;;1.23;;
46835;SDS011;32573;51.290;6.926;2023-05-07T04:08:36;2.30;;;1.30;;
46835;SDS011;32573;51.290;6.926;2023-05-07T04:11:06;2.38;;;1.17;;
46835;SDS011;32573;51.290;6.926;2023-05-07T04:13:38;2.95;;;1.23;;
46835;SDS011;32573;51.290;6.926;2023-05-07T04:16:08;3.50;;;1.58;;
46835;SDS011;32573;51.290;6.926;2023-05-07T04:18:38;2.33;;;1.20;;
46835;SDS011;32573;51.290;6.926;2023-05-07T04:21:13;2.40;;;1.10;;
46835;SDS011;32573;51.290;6.926;2023-05-07T04:23:42;2.95;;;1.50;;
46835;SDS011;32573;51.290;6.926;2023-05-07T04:26:12;3.08;;;1.20;;
46835;SDS011;32573;51.290;6.926;2023-05-07T04:28:44;2.75;;;1.30;;
46835;SDS011;32573;51.290;6.926;2023-05-07T04:31:14;3.08;;;1.40;;
46835;SDS011;32573;51.290;6.926;2023-05-07T04:33:47;3.22;;;1.35;;
46835;SDS011;32573;51.290;6.926;2023-05-07T04:36:15;4.53;;;1.30;;
46835;SDS011;32573;51.290;6.926;2023-05-07T04:38:56;2.53;;;1.30;;
46835;SDS011;32573;51.290;6.926;2023-05-07T04:41:25;2.67;;;1.30;;
46835;SDS011;32573;51.290;6.926;2023-05-07T04:43:55;2.85;;;1.27;;
46835;SDS011;32573;51.290;6.926;2023-05-07T04:46:24;2.85;;;1.27;;
46835;SDS011;32573;51.290;6.926;2023-05-07T04:48:56;3.00;;;1.30;;
46835;SDS011;32573;51.290;6.926;2023-05-07T04:51:24;2.65;;;1.20;;
46835;SDS011;32573;51.290;6.926;2023-05-07T04:53:53;3.30;;;1.20;;
46835;SDS011;32573;51.290;6.926;2023-05-07T04:56:22;2.95;;;1.40;;
46835;SDS011;32573;51.290;6.926;2023-05-07T04:58:51;2.45;;;1.20;;
46835;SDS011;32573;51.290;6.926;2023-05-07T05:01:22;3.15;;;1.20;;
46835;SDS011;32573;51.290;6.926;2023-05-07T05:03:51;3.60;;;1.27;;
46835;SDS011;32573;51.290;6.926;2023-05-07T05:06:20;2.58;;;1.30;;
46835;SDS011;32573;51.290;6.926;2023-05-07T05:08:49;2.67;;;1.23;;
46835;SDS011;32573;51.290;6.926;2023-05-07T05:11:18;2.55;;;1.20;;
46835;SDS011;32573;51.290;6.926;2023-05-07T05:13:47;2.75;;;1.23;;
46835;SDS011;32573;51.290;6.926;2023-05-07T05:16:19;2.72;;;1.20;;
46835;SDS011;32573;51.290;6.926;2023-05-07T05:18:49;2.90;;;1.58;;
46835;SDS011;32573;51.290;6.926;2023-05-07T05:21:19;2.65;;;1.25;;
46835;SDS011;32573;51.290;6.926;2023-05-07T05:23:51;2.50;;;1.10;;
46835;SDS011;32573;51.290;6.926;2023-05-07T05:26:22;2.78;;;1.25;;
46835;SDS011;32573;51.290;6.926;2023-05-07T05:28:51;2.70;;;1.40;;
46835;SDS011;32573;51.290;6.926;2023-05-07T05:31:22;2.45;;;1.20;;
46835;SDS011;32573;51.290;6.926;2023-05-07T05:33:52;3.70;;;1.20;;
46835;SDS011;32573;51.290;6.926;2023-05-07T05:36:21;2.33;;;1.17;;
46835;SDS011;32573;51.290;6.926;2023-05-07T05:38:53;2.30;;;1.08;;
46835;SDS011;32573;51.290;6.926;2023-05-07T05:41:22;2.50;;;1.10;;
46835;SDS011;32573;51.290;6.926;2023-05-07T05:43:51;2.40;;;1.10;;
46835;SDS011;32573;51.290;6.926;2023-05-07T05:46:19;2.47;;;1.30;;
46835;SDS011;32573;51.290;6.926;2023-05-07T05:48:50;2.80;;;1.20;;
46835;SDS011;32573;51.290;6.926;2023-05-07T05:51:20;2.40;;;1.20;;
46835;SDS011;32573;51.290;6.926;2023-05-07T05:53:49;2.97;;;1.30;;
46835;SDS011;32573;51.290;6.926;2023-05-07T05:56:19;2.50;;;1.23;;
46835;SDS011;32573;51.290;6.926;2023-05-07T05:58:48;3.10;;;1.27;;
46835;SDS011;32573;51.290;6.926;2023-05-07T06:01:17;2.40;;;1.23;;
46835;SDS011;32573;51.290;6.926;2023-05-07T06:03:47;2.80;;;1.33;;
46835;SDS011;32573;51.290;6.926;2023-05-07T06:06:16;2.33;;;1.10;;
46835;SDS011;32573;51.290;6.926;2023-05-07T06:08:47;3.72;;;1.30;;
46835;SDS011;32573;51.290;6.926;2023-05-07T06:11:21;1.67;;;0.90;;
46835;SDS011;32573;51.290;6.926;2023-05-07T06:13:49;2.97;;;1.20;;
46835;SDS011;32573;51.290;6.926;2023-05-07T06:16:18;2.50;;;1.10;;
46835;SDS011;32573;51.290;6.926;2023-05-07T06:18:47;3.20;;;1.30;;
46835;SDS011;32573;51.290;6.926;2023-05-07T06:21:16;2.22;;;1.00;;
46835;SDS011;32573;51.290;6.926;2023-05-07T06:23:44;2.05;;;1.05;;
46835;SDS011;32573;51.290;6.926;2023-05-07T06:26:15;2.45;;;1.20;;
46835;SDS011;32573;51.290;6.926;2023-05-07T06:28:46;2.50;;;1.20;;
46835;SDS011;32573;51.290;6.926;2023-05-07T06:31:16;2.40;;;1.20;;
46835;SDS011;32573;51.290;6.926;2023-05-07T06:33:54;2.97;;;1.20;;
46835;SDS011;32573;51.290;6.926;2023-05-07T06:36:29;2.55;;;1.10;;
46835;SDS011;32573;51.290;6.926;2023-05-07T06:39:00;2.55;;;1.23;;
46835;SDS011;32573;51.290;6.926;2023-05-07T06:41:30;3.03;;;1.40;;
46835;SDS011;32573;51.290;6.926;2023-05-07T06:44:06;3.55;;;1.10;;
46835;SDS011;32573;51.290;6.926;2023-05-07T06:46:46;3.15;;;1.20;;
46835;SDS011;32573;51.290;6.926;2023-05-07T06:49:15;2.92;;;1.15;;
46835;SDS011;32573;51.290;6.926;2023-05-07T06:51:44;2.45;;;1.20;;
46835;SDS011;32573;51.290;6.926;2023-05-07T06:54:13;3.97;;;1.40;;
46835;SDS011;32573;51.290;6.926;2023-05-07T06:56:44;2.92;;;1.30;;
46835;SDS011;32573;51.290;6.926;2023-05-07T06:59:13;2.95;;;1.40;;
46835;SDS011;32573;51.290;6.926;2023-05-07T07:01:41;2.72;;;1.30;;
46835;SDS011;32573;51.290;6.926;2023-05-07T07:04:11;2.95;;;1.42;;
46835;SDS011;32573;51.290;6.926;2023-05-07T07:06:41;2.60;;;1.30;;
46835;SDS011;32573;51.290;6.926;2023-05-07T07:09:12;2.28;;;1.10;;
46835;SDS011;32573;51.290;6.926;2023-05-07T07:11:41;2.67;;;1.15;;
46835;SDS011;32573;51.290;6.926;2023-05-07T07:14:11;2.60;;;1.27;;
46835;SDS011;32573;51.290;6.926;2023-05-07T07:16:45;3.10;;;1.30;;
46835;SDS011;32573;51.290;6.926;2023-05-07T07:19:16;2.47;;;1.23;;
46835;SDS011;32573;51.290;6.926;2023-05-07T07:21:49;2.58;;;1.20;;
46835;SDS011;32573;51.290;6.926;2023-05-07T07:24:18;3.28;;;1.30;;
46835;SDS011;32573;51.290;6.926;2023-05-07T07:26:52;2.70;;;1.10;;
46835;SDS011;32573;51.290;6.926;2023-05-07T07:29:24;2.88;;;1.20;;
46835;SDS011;32573;51.290;6.926;2023-05-07T07:31:54;3.10;;;1.38;;
46835;SDS011;32573;51.290;6.926;2023-05-07T07:34:23;2.85;;;1.30;;
46835;SDS011;32573;51.290;6.926;2023-05-07T07:36:51;2.65;;;1.20;;
46835;SDS011;32573;51.290;6.926;2023-05-07T07:39:20;2.38;;;1.40;;
46835;SDS011;32573;51.290;6.926;2023-05-07T07:41:51;2.83;;;1.30;;
46835;SDS011;32573;51.290;6.926;2023-05-07T07:44:21;2.25;;;1.08;;
46835;SDS011;32573;51.290;6.926;2023-05-07T07:46:57;2.15;;;1.13;;
46835;SDS011;32573;51.290;6.926;2023-05-07T07:49:26;2.67;;;1.20;;
46835;SDS011;32573;51.290;6.926;2023-05-07T07:51:57;3.00;;;1.10;;
46835;SDS011;32573;51.290;6.926;2023-05-07T07:54:28;2.50;;;1.13;;
46835;SDS011;32573;51.290;6.926;2023-05-07T07:56:57;3.60;;;1.30;;
46835;SDS011;32573;51.290;6.926;2023-05-07T07:59:26;3.15;;;1.40;;
46835;SDS011;32573;51.290;6.926;2023-05-07T08:01:56;2.28;;;1.13;;
46835;SDS011;32573;51.290;6.926;2023-05-07T08:04:27;2.63;;;1.15;;
46835;SDS011;32573;51.290;6.926;2023-05-07T08:07:00;2.45;;;1.00;;
46835;SDS011;32573;51.290;6.926;2023-05-07T08:09:32;3.25;;;1.38;;
46835;SDS011;32573;51.290;6.926;2023-05-07T08:12:02;2.65;;;1.20;;
46835;SDS011;32573;51.290;6.926;2023-05-07T08:14:33;2.58;;;1.10;;
46835;SDS011;32573;51.290;6.926;2023-05-07T08:17:06;2.13;;;1.10;;
46835;SDS011;32573;51.290;6.926;2023-05-07T08:19:37;2.75;;;1.33;;
46835;SDS011;32573;51.290;6.926;2023-05-07T08:22:08;2.75;;;1.30;;
46835;SDS011;32573;51.290;6.926;2023-05-07T08:24:38;2.15;;;1.10;;
46835;SDS011;32573;51.290;6.926;2023-05-07T08:27:07;2.58;;;1.38;;
46835;SDS011;32573;51.290;6.926;2023-05-07T08:29:37;3.17;;;1.48;;
46835;SDS011;32573;51.290;6.926;2023-05-07T08:32:07;2.45;;;1.15;;
46835;SDS011;32573;51.290;6.926;2023-05-07T08:34:35;2.85;;;1.20;;
46835;SDS011;32573;51.290;6.926;2023-05-07T08:37:05;2.97;;;1.17;;
46835;SDS011;32573;51.290;6.926;2023-05-07T08:39:35;3.13;;;1.42;;
46835;SDS011;32573;51.290;6.926;2023-05-07T08:42:08;2.78;;;1.17;;
46835;SDS011;32573;51.290;6.926;2023-05-07T08:44:39;3.08;;;1.40;;
46835;SDS011;32573;51.290;6.926;2023-05-07T08:47:10;3.33;;;1.40;;
46835;SDS011;32573;51.290;6.926;2023-05-07T08:49:39;2.90;;;1.50;;
46835;SDS011;32573;51.290;6.926;2023-05-07T08:52:08;3.67;;;1.30;;
46835;SDS011;32573;51.290;6.926;2023-05-07T08:54:37;3.85;;;1.65;;
46835;SDS011;32573;51.290;6.926;2023-05-07T08:57:08;3.35;;;1.55;;
46835;SDS011;32573;51.290;6.926;2023-05-07T08:59:38;3.33;;;1.48;;
46835;SDS011;32573;51.290;6.926;2023-05-07T09:02:08;3.63;;;1.52;;
46835;SDS011;32573;51.290;6.926;2023-05-07T09:04:39;2.85;;;1.40;;
46835;SDS011;32573;51.290;6.926;2023-05-07T09:07:08;4.13;;;1.40;;
46835;SDS011;32573;51.290;6.926;2023-05-07T09:09:41;3.33;;;1.10;;
46835;SDS011;32573;51.290;6.926;2023-05-07T09:12:12;2.95;;;1.30;;
46835;SDS011;32573;51.290;6.926;2023-05-07T09:14:41;4.07;;;1.40;;
46835;SDS011;32573;51.290;6.926;2023-05-07T09:17:11;2.42;;;1.10;;
46835;SDS011;32573;51.290;6.926;2023-05-07T09:19:39;2.38;;;1.13;;
46835;SDS011;32573;51.290;6.926;2023-05-07T09:22:08;2.55;;;1.17;;
46835;SDS011;32573;51.290;6.926;2023-05-07T09:24:47;2.70;;;1.30;;
46835;SDS011;32573;51.290;6.926;2023-05-07T09:27:18;2.47;;;1.10;;
46835;SDS011;32573;51.290;6.926;2023-05-07T09:29:47;2.70;;;1.23;;
46835;SDS011;32573;51.290;6.926;2023-05-07T09:32:17;3.00;;;1.13;;
46835;SDS011;32573;51.290;6.926;2023-05-07T09:34:46;2.80;;;1.20;;
46835;SDS011;32573;51.290;6.926;2023-05-07T09:37:18;3.28;;;1.30;;
46835;SDS011;32573;51.290;6.926;2023-05-07T09:39:47;2.80;;;1.20;;
46835;SDS011;32573;51.290;6.926;2023-05-07T09:42:22;2.95;;;1.30;;
46835;SDS011;32573;51.290;6.926;2023-05-07T09:44:54;3.53;;;1.35;;
46835;SDS011;32573;51.290;6.926;2023-05-07T09:47:27;2.67;;;1.08;;
46835;SDS011;32573;51.290;6.926;2023-05-07T09:50:05;3.28;;;1.20;;
46835;SDS011;32573;51.290;6.926;2023-05-07T09:52:38;2.63;;;1.30;;
46835;SDS011;32573;51.290;6.926;2023-05-07T09:55:09;3.72;;;1.30;;
46835;SDS011;32573;51.290;6.926;2023-05-07T09:57:39;3.25;;;1.33;;
46835;SDS011;32573;51.290;6.926;2023-05-07T10:00:10;2.88;;;1.30;;
46835;SDS011;32573;51.290;6.926;2023-05-07T10:02:56;2.60;;;1.20;;
46835;SDS011;32573;51.290;6.926;2023-05-07T10:05:37;2.80;;;1.17;;
46835;SDS011;32573;51.290;6.926;2023-05-07T10:08:07;2.50;;;1.25;;
46835;SDS011;32573;51.290;6.926;2023-05-07T10:10:38;2.90;;;1.30;;
46835;SDS011;32573;51.290;6.926;2023-05-07T10:13:12;3.30;;;1.48;;
46835;SDS011;32573;51.290;6.926;2023-05-07T10:15:46;2.83;;;1.30;;
46835;SDS011;32573;51.290;6.926;2023-05-07T10:18:17;2.67;;;1.25;;
46835;SDS011;32573;51.290;6.926;2023-05-07T10:20:51;2.40;;;1.20;;
46835;SDS011;32573;51.290;6.926;2023-05-07T10:23:23;2.35;;;1.15;;
46835;SDS011;32573;51.290;6.926;2023-05-07T10:25:56;2.55;;;1.10;;
46835;SDS011;32573;51.290;6.926;2023-05-07T10:28:30;3.58;;;1.25;;
46835;SDS011;32573;51.290;6.926;2023-05-07T10:31:07;2.57;;;1.10;;
46835;SDS011;32573;51.290;6.926;2023-05-07T10:33:47;4.05;;;1.23;;
46835;SDS011;32573;51.290;6.926;2023-05-07T10:36:22;2.15;;;1.00;;
46835;SDS011;32573;51.290;6.926;2023-05-07T10:38:53;2.40;;;1.10;;
46835;SDS011;32573;51.290;6.926;2023-05-07T10:41:23;2.25;;;1.10;;
46835;SDS011;32573;51.290;6.926;2023-05-07T10:43:52;3.38;;;1.10;;
46835;SDS011;32573;51.290;6.926;2023-05-07T10:46:28;3.20;;;1.17;;
46835;SDS011;32573;51.290;6.926;2023-05-07T10:49:08;2.65;;;1.17;;
46835;SDS011;32573;51.290;6.926;2023-05-07T10:52:13;2.40;;;1.10;;
46835;SDS011;32573;51.290;6.926;2023-05-07T10:55:20;2.85;;;1.15;;
46835;SDS011;32573;51.290;6.926;2023-05-07T11:04:27;2.30;;;1.00;;
46835;SDS011;32573;51.290;6.926;2023-05-07T11:07:29;2.40;;;1.05;;
46835;SDS011;32573;51.290;6.926;2023-05-07T11:10:10;2.03;;;1.00;;
46835;SDS011;32573;51.290;6.926;2023-05-07T11:12:57;2.47;;;1.13;;
46835;SDS011;32573;51.290;6.926;2023-05-07T11:15:38;2.17;;;0.90;;
46835;SDS011;32573;51.290;6.926;2023-05-07T11:18:26;2.95;;;1.05;;
46835;SDS011;32573;51.290;6.926;2023-05-07T11:21:26;2.38;;;0.90;;
46835;SDS011;32573;51.290;6.926;2023-05-07T11:24:20;2.58;;;1.20;;
46835;SDS011;32573;51.290;6.926;2023-05-07T11:26:54;2.28;;;0.90;;
46835;SDS011;32573;51.290;6.926;2023-05-07T11:29:25;2.67;;;1.10;;
46835;SDS011;32573;51.290;6.926;2023-05-07T11:31:59;2.30;;;1.10;;
46835;SDS011;32573;51.290;6.926;2023-05-07T11:34:35;2.83;;;1.10;;
46835;SDS011;32573;51.290;6.926;2023-05-07T11:37:06;3.00;;;1.20;;
46835;SDS011;32573;51.290;6.926;2023-05-07T11:39:47;3.08;;;1.20;;
46835;SDS011;32573;51.290;6.926;2023-05-07T11:42:25;2.75;;;1.10;;
46835;SDS011;32573;51.290;6.926;2023-05-07T11:44:53;2.58;;;1.00;;
46835;SDS011;32573;51.290;6.926;2023-05-07T11:47:22;3.13;;;1.10;;
46835;SDS011;32573;51.290;6.926;2023-05-07T11:49:51;3.67;;;1.20;;
46835;SDS011;32573;51.290;6.926;2023-05-07T11:52:22;2.95;;;1.15;;
46835;SDS011;32573;51.290;6.926;2023-05-07T11:54:52;3.13;;;1.02;;
46835;SDS011;32573;51.290;6.926;2023-05-07T11:57:22;2.25;;;1.05;;
46835;SDS011;32573;51.290;6.926;2023-05-07T11:59:52;3.20;;;1.10;;
46835;SDS011;32573;51.290;6.926;2023-05-07T12:02:21;2.65;;;1.10;;
46835;SDS011;32573;51.290;6.926;2023-05-07T12:04:52;2.53;;;1.20;;
46835;SDS011;32573;51.290;6.926;2023-05-07T12:07:23;3.80;;;1.10;;
46835;SDS011;32573;51.290;6.926;2023-05-07T12:09:52;2.90;;;1.17;;
46835;SDS011;32573;51.290;6.926;2023-05-07T12:12:21;2.80;;;1.30;;
46835;SDS011;32573;51.290;6.926;2023-05-07T12:14:50;2.63;;;1.25;;
46835;SDS011;32573;51.290;6.926;2023-05-07T12:17:19;2.40;;;1.10;;
46835;SDS011;32573;51.290;6.926;2023-05-07T12:19:50;2.90;;;1.30;;
46835;SDS011;32573;51.290;6.926;2023-05-07T12:22:22;2.33;;;1.15;;
46835;SDS011;32573;51.290;6.926;2023-05-07T12:24:56;4.88;;;1.55;;
46835;SDS011;32573;51.290;6.926;2023-05-07T12:27:26;3.78;;;1.50;;
46835;SDS011;32573;51.290;6.926;2023-05-07T12:29:54;3.13;;;1.42;;
46835;SDS011;32573;51.290;6.926;2023-05-07T12:32:25;3.08;;;1.20;;
46835;SDS011;32573;51.290;6.926;2023-05-07T12:34:55;3.42;;;1.55;;
46835;SDS011;32573;51.290;6.926;2023-05-07T12:37:25;3.25;;;1.50;;
46835;SDS011;32573;51.290;6.926;2023-05-07T12:40:04;2.95;;;1.23;;
46835;SDS011;32573;51.290;6.926;2023-05-07T12:42:35;3.30;;;1.40;;
46835;SDS011;32573;51.290;6.926;2023-05-07T12:45:08;3.42;;;1.50;;
46835;SDS011;32573;51.290;6.926;2023-05-07T12:47:37;3.28;;;1.60;;
46835;SDS011;32573;51.290;6.926;2023-05-07T12:50:06;3.00;;;1.30;;
46835;SDS011;32573;51.290;6.926;2023-05-07T12:52:36;3.15;;;1.40;;
46835;SDS011;32573;51.290;6.926;2023-05-07T12:55:05;5.53;;;1.30;;
46835;SDS011;32573;51.290;6.926;2023-05-07T12:57:38;2.80;;;1.30;;
46835;SDS011;32573;51.290;6.926;2023-05-07T13:00:08;2.78;;;1.40;;
46835;SDS011;32573;51.290;6.926;2023-05-07T13:02:38;4.85;;;1.33;;
46835;SDS011;32573;51.290;6.926;2023-05-07T13:05:08;3.08;;;1.30;;
46835;SDS011;32573;51.290;6.926;2023-05-07T13:07:38;2.90;;;1.42;;
46835;SDS011;32573;51.290;6.926;2023-05-07T13:10:08;3.47;;;1.52;;
46835;SDS011;32573;51.290;6.926;2023-05-07T13:12:37;4.63;;;1.80;;
46835;SDS011;32573;51.290;6.926;2023-05-07T13:15:06;3.67;;;1.50;;
46835;SDS011;32573;51.290;6.926;2023-05-07T13:17:35;3.20;;;1.70;;
46835;SDS011;32573;51.290;6.926;2023-05-07T13:20:04;3.88;;;1.90;;
46835;SDS011;32573;51.290;6.926;2023-05-07T13:22:35;3.50;;;1.90;;
46835;SDS011;32573;51.290;6.926;2023-05-07T13:25:06;4.18;;;1.85;;
46835;SDS011;32573;51.290;6.926;2023-05-07T13:27:35;5.65;;;2.13;;
46835;SDS011;32573;51.290;6.926;2023-05-07T13:30:04;4.20;;;2.00;;
46835;SDS011;32573;51.290;6.926;2023-05-07T13:32:34;4.80;;;2.08;;
46835;SDS011;32573;51.290;6.926;2023-05-07T13:35:03;4.10;;;2.30;;
46835;SDS011;32573;51.290;6.926;2023-05-07T13:37:32;4.00;;;2.00;;
46835;SDS011;32573;51.290;6.926;2023-05-07T13:40:00;4.65;;;2.10;;
46835;SDS011;32573;51.290;6.926;2023-05-07T13:42:31;5.00;;;2.42;;
46835;SDS011;32573;51.290;6.926;2023-05-07T13:44:59;4.00;;;2.30;;
46835;SDS011;32573;51.290;6.926;2023-05-07T13:47:30;4.03;;;2.28;;
46835;SDS011;32573;51.290;6.926;2023-05-07T13:49:58;4.00;;;2.47;;
46835;SDS011;32573;51.290;6.926;2023-05-07T13:52:27;4.93;;;3.00;;
46835;SDS011;32573;51.290;6.926;2023-05-07T13:54:55;5.03;;;2.60;;
46835;SDS011;32573;51.290;6.926;2023-05-07T13:57:25;4.30;;;2.25;;
46835;SDS011;32573;51.290;6.926;2023-05-07T13:59:55;5.85;;;2.50;;
46835;SDS011;32573;51.290;6.926;2023-05-07T14:02:24;5.88;;;2.95;;
46835;SDS011;32573;51.290;6.926;2023-05-07T14:04:52;5.90;;;2.83;;
46835;SDS011;32573;51.290;6.926;2023-05-07T14:07:21;4.50;;;2.78;;
46835;SDS011;32573;51.290;6.926;2023-05-07T14:09:50;5.68;;;3.17;;
46835;SDS011;32573;51.290;6.926;2023-05-07T14:12:18;12.57;;;5.63;;
46835;SDS011;32573;51.290;6.926;2023-05-07T14:14:47;16.58;;;9.70;;
46835;SDS011;32573;51.290;6.926;2023-05-07T14:17:18;29.05;;;19.95;;
46835;SDS011;32573;51.290;6.926;2023-05-07T14:19:47;21.67;;;13.98;;
46835;SDS011;32573;51.290;6.926;2023-05-07T14:22:15;9.00;;;6.07;;
46835;SDS011;32573;51.290;6.926;2023-05-07T14:24:44;8.25;;;4.97;;
46835;SDS011;32573;51.290;6.926;2023-05-07T14:27:25;7.55;;;4.95;;
46835;SDS011;32573;51.290;6.926;2023-05-07T14:29:54;7.53;;;4.15;;
46835;SDS011;32573;51.290;6.926;2023-05-07T14:32:24;8.07;;;4.50;;
46835;SDS011;32573;51.290;6.926;2023-05-07T14:34:52;6.72;;;4.00;;
46835;SDS011;32573;51.290;6.926;2023-05-07T14:37:21;6.80;;;4.22;;
46835;SDS011;32573;51.290;6.926;2023-05-07T14:39:49;8.13;;;3.97;;
46835;SDS011;32573;51.290;6.926;2023-05-07T14:42:18;6.15;;;3.50;;
46835;SDS011;32573;51.290;6.926;2023-05-07T14:44:47;6.82;;;3.95;;
46835;SDS011;32573;51.290;6.926;2023-05-07T14:47:15;6.70;;;3.95;;
46835;SDS011;32573;51.290;6.926;2023-05-07T14:49:47;6.30;;;3.95;;
46835;SDS011;32573;51.290;6.926;2023-05-07T14:52:15;5.82;;;3.78;;
46835;SDS011;32573;51.290;6.926;2023-05-07T14:54:44;6.30;;;3.63;;
46835;SDS011;32573;51.290;6.926;2023-05-07T14:57:13;4.78;;;3.13;;
46835;SDS011;32573;51.290;6.926;2023-05-07T14:59:43;4.82;;;3.15;;
46835;SDS011;32573;51.290;6.926;2023-05-07T15:02:11;6.50;;;3.38;;
46835;SDS011;32573;51.290;6.926;2023-05-07T15:04:40;5.55;;;3.50;;
46835;SDS011;32573;51.290;6.926;2023-05-07T15:07:14;6.50;;;3.65;;
46835;SDS011;32573;51.290;6.926;2023-05-07T15:09:44;5.20;;;3.45;;
46835;SDS011;32573;51.290;6.926;2023-05-07T15:12:14;5.85;;;3.50;;
46835;SDS011;32573;51.290;6.926;2023-05-07T15:14:42;5.47;;;3.47;;
46835;SDS011;32573;51.290;6.926;2023-05-07T15:17:12;6.65;;;3.60;;